TOM9CK EGBB-LEPA
Flight info
| Callsign | TOM9CK |
|---|---|
| Flight time | N/A |
| Altitude | 37000 |
| Route | CPT UN859 SOPIL DCT BALAN DCT EVPOK DCT NARAK DCT GAI DCT LOMRA DCT ROCAN DCT IBRAP DCT LUKEV DCT LORES |
| Aircraft | B38M/M-SDE1FGHILORVWXY/HB1 |
Departure
| Time | 2026-05-07 15:01 |
|---|---|
| Airport | Birmingham Airport (EGBB) |
Arrival
| Time | N/A |
|---|---|
| Airport | Palma de Mallorca Airport (LEPA) |
| Time | Latitude | Longitude | Altitude | Speed | Heading |
|---|---|---|---|---|---|
| 2026-05-07 14:40 | 52.45206 | -1.73697 | 326 ft | 0 kts | 326° |
| 2026-05-07 14:51 | 52.45205 | -1.73696 | 326 ft | 1 kts | 326° |
| 2026-05-07 14:52 | 52.45185 | -1.73674 | 324 ft | 3 kts | 326° |
| 2026-05-07 14:52 | 52.45167 | -1.73652 | 322 ft | 4 kts | 313° |
| 2026-05-07 14:52 | 52.45155 | -1.73616 | 323 ft | 4 kts | 275° |
| 2026-05-07 14:52 | 52.45160 | -1.73576 | 325 ft | 4 kts | 238° |
| 2026-05-07 14:53 | 52.45157 | -1.73584 | 324 ft | 4 kts | 236° |
| 2026-05-07 14:53 | 52.45147 | -1.73608 | 325 ft | 0 kts | 236° |
| 2026-05-07 14:55 | 52.45143 | -1.73617 | 323 ft | 3 kts | 236° |
| 2026-05-07 14:56 | 52.45123 | -1.73666 | 326 ft | 3 kts | 235° |
| 2026-05-07 14:56 | 52.45110 | -1.73694 | 324 ft | 7 kts | 229° |
| 2026-05-07 14:56 | 52.45068 | -1.73754 | 326 ft | 13 kts | 217° |
| 2026-05-07 14:56 | 52.45040 | -1.73889 | 323 ft | 11 kts | 304° |
| 2026-05-07 14:57 | 52.45109 | -1.73968 | 323 ft | 15 kts | 326° |
| 2026-05-07 14:57 | 52.45216 | -1.74086 | 325 ft | 22 kts | 326° |
| 2026-05-07 14:57 | 52.45352 | -1.74235 | 325 ft | 25 kts | 325° |
| 2026-05-07 14:57 | 52.45446 | -1.74475 | 326 ft | 26 kts | 298° |
| 2026-05-07 14:58 | 52.45573 | -1.74680 | 322 ft | 27 kts | 326° |
| 2026-05-07 14:58 | 52.45745 | -1.74867 | 313 ft | 32 kts | 327° |
| 2026-05-07 14:58 | 52.45934 | -1.75086 | 310 ft | 34 kts | 325° |
| 2026-05-07 14:58 | 52.46131 | -1.75306 | 306 ft | 34 kts | 326° |
| 2026-05-07 14:59 | 52.46332 | -1.75521 | 304 ft | 33 kts | 327° |
| 2026-05-07 14:59 | 52.46527 | -1.75726 | 307 ft | 33 kts | 327° |
| 2026-05-07 14:59 | 52.46631 | -1.75908 | 310 ft | 17 kts | 256° |
| 2026-05-07 14:59 | 52.46566 | -1.76079 | 310 ft | 15 kts | 230° |
| 2026-05-07 15:00 | 52.46507 | -1.76049 | 311 ft | 13 kts | 146° |
| 2026-05-07 15:00 | 52.46282 | -1.75796 | 312 ft | 77 kts | 145° |
| 2026-05-07 15:00 | 52.45627 | -1.75069 | 326 ft | 146 kts | 146° |
| 2026-05-07 15:00 | 52.44680 | -1.74011 | 691 ft | 175 kts | 145° |
| 2026-05-07 15:01 | 52.43630 | -1.72874 | 1516 ft | 185 kts | 146° |
| 2026-05-07 15:01 | 52.42567 | -1.71670 | 2424 ft | 194 kts | 146° |
| 2026-05-07 15:01 | 52.41360 | -1.70424 | 3046 ft | 212 kts | 158° |
| 2026-05-07 15:01 | 52.39949 | -1.69759 | 4057 ft | 212 kts | 164° |
| 2026-05-07 15:02 | 52.38483 | -1.68957 | 4708 ft | 233 kts | 162° |
| 2026-05-07 15:02 | 52.36902 | -1.68078 | 5555 ft | 241 kts | 162° |
| 2026-05-07 15:02 | 52.35267 | -1.67166 | 6350 ft | 257 kts | 162° |
| 2026-05-07 15:02 | 52.33550 | -1.66208 | 7052 ft | 269 kts | 162° |
| 2026-05-07 15:03 | 52.31780 | -1.65219 | 8101 ft | 270 kts | 162° |
| 2026-05-07 15:03 | 52.29987 | -1.64220 | 9050 ft | 274 kts | 162° |
| 2026-05-07 15:03 | 52.28174 | -1.63211 | 10076 ft | 276 kts | 162° |
| 2026-05-07 15:03 | 52.26315 | -1.62176 | 10717 ft | 290 kts | 162° |
| 2026-05-07 15:04 | 52.24337 | -1.61077 | 11121 ft | 311 kts | 162° |
| 2026-05-07 15:04 | 52.22255 | -1.59921 | 11574 ft | 327 kts | 162° |
| 2026-05-07 15:04 | 52.20066 | -1.58707 | 12238 ft | 335 kts | 162° |
| 2026-05-07 15:04 | 52.17854 | -1.57481 | 13097 ft | 337 kts | 162° |
| 2026-05-07 15:05 | 52.15615 | -1.56242 | 13863 ft | 342 kts | 162° |
| 2026-05-07 15:05 | 52.13348 | -1.54989 | 14561 ft | 345 kts | 162° |
| 2026-05-07 15:05 | 52.11056 | -1.53724 | 15210 ft | 350 kts | 162° |
| 2026-05-07 15:05 | 52.08733 | -1.52442 | 15856 ft | 354 kts | 162° |
| 2026-05-07 15:06 | 52.06384 | -1.51148 | 16495 ft | 358 kts | 162° |
| 2026-05-07 15:06 | 52.04035 | -1.49855 | 17121 ft | 363 kts | 163° |
| 2026-05-07 15:06 | 52.01623 | -1.48529 | 17696 ft | 367 kts | 163° |
| 2026-05-07 15:06 | 51.99190 | -1.47192 | 18306 ft | 371 kts | 163° |
| 2026-05-07 15:07 | 51.96725 | -1.45839 | 18844 ft | 375 kts | 163° |
| 2026-05-07 15:07 | 51.94238 | -1.44476 | 19397 ft | 379 kts | 163° |
| 2026-05-07 15:07 | 51.91753 | -1.43116 | 19952 ft | 382 kts | 163° |
| 2026-05-07 15:07 | 51.89215 | -1.41728 | 20466 ft | 385 kts | 163° |
| 2026-05-07 15:08 | 51.86668 | -1.40337 | 20984 ft | 388 kts | 163° |
| 2026-05-07 15:08 | 51.84120 | -1.38948 | 21495 ft | 391 kts | 163° |
| 2026-05-07 15:08 | 51.81528 | -1.37536 | 22004 ft | 394 kts | 163° |
| 2026-05-07 15:08 | 51.78905 | -1.36110 | 22500 ft | 397 kts | 163° |
| 2026-05-07 15:09 | 51.76270 | -1.34677 | 22978 ft | 401 kts | 163° |
| 2026-05-07 15:09 | 51.73605 | -1.33231 | 23459 ft | 404 kts | 163° |
| 2026-05-07 15:09 | 51.70924 | -1.31778 | 23875 ft | 407 kts | 163° |
| 2026-05-07 15:09 | 51.68260 | -1.30335 | 24299 ft | 410 kts | 163° |
| 2026-05-07 15:10 | 51.65537 | -1.28863 | 24702 ft | 412 kts | 163° |
| 2026-05-07 15:10 | 51.62809 | -1.27389 | 25102 ft | 414 kts | 164° |
| 2026-05-07 15:10 | 51.60064 | -1.25909 | 25509 ft | 416 kts | 164° |
| 2026-05-07 15:10 | 51.57309 | -1.24425 | 25897 ft | 418 kts | 164° |
| 2026-05-07 15:11 | 51.54580 | -1.22958 | 26264 ft | 421 kts | 164° |
| 2026-05-07 15:11 | 51.51782 | -1.21454 | 26622 ft | 423 kts | 164° |
| 2026-05-07 15:11 | 51.48978 | -1.19950 | 26996 ft | 426 kts | 164° |
| 2026-05-07 15:11 | 51.46159 | -1.18439 | 27374 ft | 428 kts | 164° |
| 2026-05-07 15:12 | 51.43325 | -1.16922 | 27728 ft | 430 kts | 164° |
| 2026-05-07 15:12 | 51.40483 | -1.15399 | 28098 ft | 432 kts | 163° |
| 2026-05-07 15:12 | 51.37707 | -1.13445 | 28449 ft | 436 kts | 157° |
| 2026-05-07 15:12 | 51.34940 | -1.11392 | 28784 ft | 438 kts | 158° |
| 2026-05-07 15:13 | 51.32186 | -1.09394 | 29109 ft | 441 kts | 158° |
| 2026-05-07 15:13 | 51.29378 | -1.07382 | 29414 ft | 443 kts | 159° |
| 2026-05-07 15:13 | 51.26545 | -1.05362 | 29733 ft | 445 kts | 158° |
| 2026-05-07 15:13 | 51.23710 | -1.03294 | 30053 ft | 448 kts | 158° |
| 2026-05-07 15:14 | 51.20869 | -1.01216 | 30328 ft | 450 kts | 158° |
| 2026-05-07 15:14 | 51.18019 | -0.99140 | 30598 ft | 452 kts | 158° |
| 2026-05-07 15:14 | 51.15186 | -0.97079 | 30864 ft | 453 kts | 158° |
| 2026-05-07 15:14 | 51.12306 | -0.94988 | 31127 ft | 455 kts | 158° |
| 2026-05-07 15:15 | 51.09424 | -0.92898 | 31379 ft | 457 kts | 158° |
| 2026-05-07 15:15 | 51.06517 | -0.90793 | 31680 ft | 457 kts | 158° |
| 2026-05-07 15:15 | 51.03622 | -0.88699 | 32047 ft | 456 kts | 158° |
| 2026-05-07 15:15 | 51.00732 | -0.86611 | 32415 ft | 455 kts | 158° |
| 2026-05-07 15:16 | 50.97856 | -0.84537 | 32771 ft | 454 kts | 158° |
| 2026-05-07 15:16 | 50.94975 | -0.82462 | 33127 ft | 453 kts | 158° |
| 2026-05-07 15:16 | 50.92136 | -0.80420 | 33467 ft | 453 kts | 159° |
| 2026-05-07 15:16 | 50.89268 | -0.78360 | 33807 ft | 452 kts | 159° |
| 2026-05-07 15:17 | 50.86399 | -0.76297 | 34118 ft | 451 kts | 158° |
| 2026-05-07 15:17 | 50.83682 | -0.73790 | 34398 ft | 454 kts | 150° |
| 2026-05-07 15:17 | 50.81027 | -0.71075 | 34635 ft | 454 kts | 150° |
| 2026-05-07 15:17 | 50.78372 | -0.68380 | 34869 ft | 454 kts | 150° |
| 2026-05-07 15:18 | 50.75743 | -0.65708 | 35115 ft | 454 kts | 150° |
| 2026-05-07 15:18 | 50.73086 | -0.63010 | 35361 ft | 454 kts | 150° |
| 2026-05-07 15:18 | 50.70426 | -0.60312 | 35598 ft | 453 kts | 150° |
| 2026-05-07 15:18 | 50.67769 | -0.57621 | 35832 ft | 453 kts | 150° |
| 2026-05-07 15:19 | 50.65116 | -0.54937 | 36064 ft | 453 kts | 150° |
| 2026-05-07 15:19 | 50.62454 | -0.52249 | 36285 ft | 453 kts | 150° |
| 2026-05-07 15:19 | 50.59834 | -0.49606 | 36522 ft | 452 kts | 150° |
| 2026-05-07 15:19 | 50.57175 | -0.46927 | 36741 ft | 452 kts | 150° |
| 2026-05-07 15:20 | 50.54527 | -0.44263 | 36927 ft | 452 kts | 150° |
| 2026-05-07 15:20 | 50.51874 | -0.41598 | 37069 ft | 453 kts | 150° |
| 2026-05-07 15:20 | 50.46564 | -0.36274 | 37049 ft | 451 kts | 150° |
| 2026-05-07 15:21 | 50.41257 | -0.30968 | 37055 ft | 451 kts | 150° |
| 2026-05-07 15:21 | 50.35983 | -0.25708 | 37063 ft | 451 kts | 150° |
| 2026-05-07 15:22 | 50.30676 | -0.20430 | 37060 ft | 451 kts | 150° |
| 2026-05-07 15:22 | 50.25415 | -0.15212 | 37062 ft | 451 kts | 150° |
| 2026-05-07 15:23 | 50.20108 | -0.09962 | 37058 ft | 451 kts | 150° |
| 2026-05-07 15:23 | 50.14805 | -0.04727 | 37056 ft | 451 kts | 150° |
| 2026-05-07 15:24 | 50.09398 | 0.00038 | 37021 ft | 444 kts | 165° |
| 2026-05-07 15:24 | 50.03432 | 0.02523 | 37028 ft | 444 kts | 167° |
| 2026-05-07 15:25 | 49.97461 | 0.04938 | 37061 ft | 445 kts | 168° |
| 2026-05-07 15:25 | 49.91449 | 0.07308 | 37055 ft | 445 kts | 168° |
| 2026-05-07 15:26 | 49.85434 | 0.09665 | 37048 ft | 445 kts | 168° |
| 2026-05-07 15:26 | 49.79430 | 0.12012 | 37050 ft | 445 kts | 168° |
| 2026-05-07 15:27 | 49.73455 | 0.14341 | 37039 ft | 445 kts | 168° |
| 2026-05-07 15:27 | 49.67440 | 0.16709 | 37046 ft | 445 kts | 167° |
| 2026-05-07 15:28 | 49.61482 | 0.19117 | 37046 ft | 445 kts | 168° |
| 2026-05-07 15:28 | 49.55469 | 0.21533 | 37044 ft | 445 kts | 168° |
| 2026-05-07 15:29 | 49.49469 | 0.23938 | 37044 ft | 445 kts | 168° |
| 2026-05-07 15:29 | 49.43500 | 0.26324 | 37019 ft | 445 kts | 168° |
| 2026-05-07 15:30 | 49.37507 | 0.28713 | 37025 ft | 445 kts | 168° |
| 2026-05-07 15:30 | 49.31507 | 0.31112 | 37016 ft | 445 kts | 167° |
| 2026-05-07 15:31 | 49.25523 | 0.33650 | 37020 ft | 446 kts | 167° |
| 2026-05-07 15:31 | 49.19574 | 0.36153 | 37030 ft | 446 kts | 167° |
| 2026-05-07 15:32 | 49.13580 | 0.38668 | 37020 ft | 446 kts | 167° |
| 2026-05-07 15:32 | 49.07592 | 0.41174 | 37015 ft | 446 kts | 167° |
| 2026-05-07 15:33 | 49.01612 | 0.43669 | 37023 ft | 446 kts | 167° |
| 2026-05-07 15:33 | 48.95656 | 0.46149 | 37018 ft | 446 kts | 167° |
| 2026-05-07 15:34 | 48.89662 | 0.48639 | 37020 ft | 446 kts | 167° |
| 2026-05-07 15:34 | 48.83657 | 0.51127 | 37020 ft | 446 kts | 167° |
| 2026-05-07 15:35 | 48.77651 | 0.53562 | 37022 ft | 446 kts | 168° |
| 2026-05-07 15:35 | 48.72659 | 0.55521 | 37020 ft | 446 kts | 168° |
| 2026-05-07 15:36 | 48.66645 | 0.57884 | 37022 ft | 446 kts | 168° |
| 2026-05-07 15:36 | 48.60632 | 0.60242 | 37021 ft | 446 kts | 168° |
| 2026-05-07 15:37 | 48.53653 | 0.62971 | 37016 ft | 446 kts | 168° |
| 2026-05-07 15:37 | 48.48626 | 0.65015 | 37018 ft | 446 kts | 167° |
| 2026-05-07 15:38 | 48.42632 | 0.67448 | 37006 ft | 446 kts | 168° |
| 2026-05-07 15:38 | 48.36672 | 0.69860 | 37014 ft | 446 kts | 168° |
| 2026-05-07 15:39 | 48.30676 | 0.72280 | 37013 ft | 446 kts | 168° |
| 2026-05-07 15:39 | 48.24681 | 0.74681 | 37013 ft | 446 kts | 168° |
| 2026-05-07 15:40 | 48.18682 | 0.77044 | 37011 ft | 445 kts | 168° |
| 2026-05-07 15:40 | 48.12687 | 0.79403 | 37006 ft | 445 kts | 168° |
| 2026-05-07 15:41 | 48.06699 | 0.81754 | 37010 ft | 445 kts | 168° |
| 2026-05-07 15:41 | 48.00707 | 0.84102 | 37000 ft | 445 kts | 168° |
| 2026-05-07 15:42 | 47.94719 | 0.86441 | 37007 ft | 445 kts | 168° |
| 2026-05-07 15:42 | 47.88747 | 0.88769 | 37002 ft | 446 kts | 168° |
| 2026-05-07 15:43 | 47.82750 | 0.91100 | 37018 ft | 446 kts | 168° |
| 2026-05-07 15:43 | 47.76745 | 0.93426 | 36992 ft | 445 kts | 168° |
| 2026-05-07 15:44 | 47.70749 | 0.95745 | 36999 ft | 445 kts | 168° |
| 2026-05-07 15:44 | 47.64746 | 0.98061 | 37013 ft | 445 kts | 168° |
| 2026-05-07 15:45 | 47.58782 | 1.00356 | 36992 ft | 445 kts | 168° |
| 2026-05-07 15:45 | 47.52787 | 1.02657 | 37008 ft | 445 kts | 168° |
| 2026-05-07 15:46 | 47.43779 | 1.06058 | 37000 ft | 443 kts | 173° |
| 2026-05-07 15:46 | 47.40736 | 1.06296 | 37022 ft | 435 kts | 185° |
| 2026-05-07 15:47 | 47.37693 | 1.06244 | 36969 ft | 439 kts | 183° |
| 2026-05-07 15:47 | 47.31588 | 1.06168 | 37007 ft | 438 kts | 184° |
| 2026-05-07 15:48 | 47.25496 | 1.06034 | 36992 ft | 438 kts | 184° |
| 2026-05-07 15:48 | 47.19404 | 1.05892 | 36995 ft | 438 kts | 184° |
| 2026-05-07 15:49 | 47.13314 | 1.05750 | 36986 ft | 437 kts | 184° |
| 2026-05-07 15:49 | 47.07277 | 1.05609 | 36999 ft | 437 kts | 184° |
| 2026-05-07 15:50 | 47.01199 | 1.05420 | 36975 ft | 436 kts | 185° |
| 2026-05-07 15:50 | 46.95126 | 1.05155 | 36982 ft | 437 kts | 185° |
| 2026-05-07 15:51 | 46.89062 | 1.04899 | 36978 ft | 436 kts | 185° |
| 2026-05-07 15:51 | 46.83005 | 1.04644 | 36981 ft | 436 kts | 185° |
| 2026-05-07 15:52 | 46.76946 | 1.04391 | 36979 ft | 436 kts | 185° |
| 2026-05-07 15:52 | 46.70884 | 1.04137 | 36986 ft | 436 kts | 185° |
| 2026-05-07 15:53 | 46.64822 | 1.03884 | 36975 ft | 435 kts | 185° |
| 2026-05-07 15:53 | 46.58791 | 1.03633 | 36978 ft | 436 kts | 185° |
| 2026-05-07 15:54 | 46.52734 | 1.03402 | 36971 ft | 436 kts | 182° |
| 2026-05-07 15:54 | 46.49724 | 1.04040 | 36981 ft | 439 kts | 169° |
| 2026-05-07 15:54 | 46.46746 | 1.05032 | 36960 ft | 441 kts | 171° |
| 2026-05-07 15:55 | 46.40751 | 1.06978 | 36983 ft | 441 kts | 171° |
| 2026-05-07 15:55 | 46.34762 | 1.08969 | 36970 ft | 441 kts | 171° |
| 2026-05-07 15:56 | 46.28788 | 1.10959 | 36976 ft | 440 kts | 171° |
| 2026-05-07 15:56 | 46.22808 | 1.12946 | 36982 ft | 441 kts | 171° |
| 2026-05-07 15:57 | 46.16835 | 1.14927 | 36975 ft | 441 kts | 171° |
| 2026-05-07 15:57 | 46.10857 | 1.16904 | 36965 ft | 440 kts | 171° |
| 2026-05-07 15:58 | 46.04927 | 1.18862 | 36968 ft | 440 kts | 171° |
| 2026-05-07 15:58 | 45.98949 | 1.20831 | 36966 ft | 441 kts | 171° |
| 2026-05-07 15:59 | 45.92960 | 1.22799 | 36962 ft | 440 kts | 171° |
| 2026-05-07 15:59 | 45.86990 | 1.24756 | 36966 ft | 440 kts | 171° |
| 2026-05-07 16:00 | 45.81018 | 1.26710 | 36986 ft | 440 kts | 171° |
| 2026-05-07 16:00 | 45.75052 | 1.28659 | 36951 ft | 439 kts | 171° |
| 2026-05-07 16:01 | 45.69085 | 1.30602 | 36978 ft | 439 kts | 171° |
| 2026-05-07 16:01 | 45.63163 | 1.32527 | 36979 ft | 439 kts | 171° |
| 2026-05-07 16:02 | 45.57202 | 1.34460 | 36986 ft | 439 kts | 171° |
| 2026-05-07 16:02 | 45.51248 | 1.36388 | 36964 ft | 438 kts | 171° |
| 2026-05-07 16:03 | 45.45304 | 1.38307 | 36974 ft | 438 kts | 171° |
| 2026-05-07 16:03 | 45.39357 | 1.40223 | 36974 ft | 438 kts | 171° |
| 2026-05-07 16:04 | 45.33408 | 1.42136 | 36973 ft | 438 kts | 171° |
| 2026-05-07 16:04 | 45.27467 | 1.44042 | 36977 ft | 438 kts | 171° |
| 2026-05-07 16:05 | 45.21525 | 1.45944 | 36971 ft | 438 kts | 171° |
| 2026-05-07 16:05 | 45.15615 | 1.47833 | 36964 ft | 437 kts | 171° |
| 2026-05-07 16:06 | 45.09677 | 1.49726 | 36963 ft | 437 kts | 171° |
| 2026-05-07 16:06 | 45.03736 | 1.51615 | 36967 ft | 437 kts | 171° |
| 2026-05-07 16:07 | 44.97801 | 1.53499 | 36955 ft | 437 kts | 171° |
| 2026-05-07 16:07 | 44.91868 | 1.55379 | 36973 ft | 437 kts | 171° |
| 2026-05-07 16:08 | 44.85929 | 1.57256 | 36970 ft | 437 kts | 171° |
| 2026-05-07 16:08 | 44.79990 | 1.59129 | 36969 ft | 437 kts | 171° |
| 2026-05-07 16:09 | 44.74049 | 1.60999 | 36965 ft | 437 kts | 171° |
| 2026-05-07 16:09 | 44.68115 | 1.62863 | 36965 ft | 437 kts | 171° |
| 2026-05-07 16:10 | 44.62218 | 1.64712 | 36963 ft | 437 kts | 171° |
| 2026-05-07 16:10 | 44.56286 | 1.66567 | 36965 ft | 437 kts | 171° |
| 2026-05-07 16:11 | 44.50353 | 1.68419 | 36965 ft | 436 kts | 171° |
| 2026-05-07 16:11 | 44.44425 | 1.70265 | 36966 ft | 437 kts | 171° |
| 2026-05-07 16:12 | 44.38496 | 1.72109 | 36959 ft | 436 kts | 171° |
| 2026-05-07 16:12 | 44.32567 | 1.73949 | 36962 ft | 436 kts | 171° |
| 2026-05-07 16:13 | 44.26618 | 1.75447 | 36974 ft | 434 kts | 175° |
| 2026-05-07 16:13 | 44.20643 | 1.76765 | 36952 ft | 434 kts | 174° |
| 2026-05-07 16:14 | 44.14672 | 1.78106 | 36959 ft | 434 kts | 174° |
| 2026-05-07 16:14 | 44.08749 | 1.79436 | 36957 ft | 434 kts | 174° |
| 2026-05-07 16:15 | 44.02780 | 1.80774 | 36952 ft | 434 kts | 174° |
| 2026-05-07 16:15 | 43.96822 | 1.82106 | 36953 ft | 433 kts | 175° |
| 2026-05-07 16:16 | 43.90869 | 1.82720 | 36956 ft | 430 kts | 180° |
| 2026-05-07 16:16 | 43.84900 | 1.83289 | 36962 ft | 430 kts | 180° |
| 2026-05-07 16:17 | 43.78935 | 1.83883 | 36958 ft | 429 kts | 180° |
| 2026-05-07 16:17 | 43.72988 | 1.84479 | 36959 ft | 428 kts | 180° |
| 2026-05-07 16:18 | 43.67079 | 1.85069 | 36969 ft | 428 kts | 180° |
| 2026-05-07 16:18 | 43.61134 | 1.85661 | 36948 ft | 428 kts | 180° |
| 2026-05-07 16:19 | 43.55200 | 1.86252 | 36953 ft | 426 kts | 180° |
| 2026-05-07 16:19 | 43.49278 | 1.86840 | 36948 ft | 426 kts | 180° |
| 2026-05-07 16:20 | 43.43358 | 1.87427 | 36938 ft | 426 kts | 180° |
| 2026-05-07 16:20 | 43.37445 | 1.88011 | 36927 ft | 425 kts | 180° |
| 2026-05-07 16:21 | 43.31544 | 1.88582 | 36931 ft | 425 kts | 180° |
| 2026-05-07 16:21 | 43.25650 | 1.89145 | 36935 ft | 425 kts | 180° |
| 2026-05-07 16:22 | 43.19749 | 1.89708 | 36929 ft | 425 kts | 180° |
| 2026-05-07 16:22 | 43.13898 | 1.90267 | 36932 ft | 424 kts | 180° |
| 2026-05-07 16:23 | 43.08007 | 1.90827 | 36941 ft | 424 kts | 180° |
| 2026-05-07 16:23 | 43.02124 | 1.91385 | 36932 ft | 423 kts | 181° |
| 2026-05-07 16:24 | 42.96271 | 1.91940 | 36938 ft | 419 kts | 181° |
| 2026-05-07 16:24 | 42.90467 | 1.92489 | 36947 ft | 418 kts | 181° |
| 2026-05-07 16:25 | 42.84651 | 1.93038 | 36942 ft | 418 kts | 181° |
| 2026-05-07 16:25 | 42.79826 | 1.93493 | 36947 ft | 417 kts | 181° |
| 2026-05-07 16:26 | 42.74026 | 1.94038 | 36949 ft | 418 kts | 181° |
| 2026-05-07 16:26 | 42.67270 | 1.94746 | 36940 ft | 423 kts | 174° |
| 2026-05-07 16:27 | 42.62483 | 1.96435 | 36896 ft | 424 kts | 171° |
| 2026-05-07 16:27 | 42.56800 | 1.98464 | 36937 ft | 425 kts | 171° |
| 2026-05-07 16:28 | 42.51096 | 2.00513 | 36967 ft | 424 kts | 171° |
| 2026-05-07 16:28 | 42.45382 | 2.02563 | 36961 ft | 424 kts | 171° |
| 2026-05-07 16:29 | 42.39667 | 2.04609 | 36975 ft | 426 kts | 171° |
| 2026-05-07 16:29 | 42.33955 | 2.06646 | 36956 ft | 423 kts | 171° |
| 2026-05-07 16:30 | 42.28251 | 2.08675 | 36947 ft | 422 kts | 171° |
| 2026-05-07 16:30 | 42.22594 | 2.10681 | 36950 ft | 424 kts | 172° |
| 2026-05-07 16:31 | 42.16887 | 2.12703 | 36970 ft | 424 kts | 171° |
| 2026-05-07 16:31 | 42.11172 | 2.14724 | 36967 ft | 424 kts | 171° |
| 2026-05-07 16:32 | 42.05467 | 2.16736 | 36963 ft | 423 kts | 171° |
| 2026-05-07 16:32 | 41.99760 | 2.18746 | 36943 ft | 424 kts | 171° |
| 2026-05-07 16:33 | 41.94060 | 2.20750 | 36951 ft | 423 kts | 171° |
| 2026-05-07 16:33 | 41.88397 | 2.22737 | 36949 ft | 422 kts | 171° |
| 2026-05-07 16:34 | 41.82710 | 2.24729 | 36958 ft | 422 kts | 171° |
| 2026-05-07 16:34 | 41.77018 | 2.26720 | 36963 ft | 422 kts | 171° |
| 2026-05-07 16:35 | 41.71329 | 2.28708 | 36960 ft | 422 kts | 171° |
| 2026-05-07 16:35 | 41.65639 | 2.30692 | 36955 ft | 422 kts | 172° |
| 2026-05-07 16:36 | 41.59957 | 2.32670 | 36965 ft | 422 kts | 172° |
| 2026-05-07 16:36 | 41.54277 | 2.34644 | 36947 ft | 421 kts | 172° |
| 2026-05-07 16:37 | 41.48606 | 2.36611 | 36971 ft | 422 kts | 171° |
| 2026-05-07 16:37 | 41.42925 | 2.38578 | 36959 ft | 421 kts | 172° |
| 2026-05-07 16:38 | 41.37248 | 2.40540 | 36956 ft | 421 kts | 172° |
| 2026-05-07 16:38 | 41.31571 | 2.42499 | 36942 ft | 422 kts | 171° |
| 2026-05-07 16:39 | 41.25932 | 2.44441 | 36956 ft | 421 kts | 171° |
| 2026-05-07 16:39 | 41.23104 | 2.45413 | 36404 ft | 419 kts | 172° |
| 2026-05-07 16:39 | 41.20290 | 2.46380 | 35881 ft | 415 kts | 172° |
| 2026-05-07 16:39 | 41.17521 | 2.47331 | 35526 ft | 407 kts | 172° |
| 2026-05-07 16:40 | 41.14805 | 2.48263 | 35128 ft | 400 kts | 172° |
| 2026-05-07 16:40 | 41.12120 | 2.49183 | 34599 ft | 398 kts | 172° |
| 2026-05-07 16:40 | 41.09447 | 2.50098 | 34043 ft | 395 kts | 172° |
| 2026-05-07 16:40 | 41.06793 | 2.51007 | 33448 ft | 392 kts | 172° |
| 2026-05-07 16:41 | 41.04155 | 2.51910 | 32908 ft | 388 kts | 172° |
| 2026-05-07 16:41 | 41.01550 | 2.52800 | 32432 ft | 384 kts | 171° |
| 2026-05-07 16:41 | 40.98980 | 2.53677 | 31968 ft | 379 kts | 171° |
| 2026-05-07 16:41 | 40.96439 | 2.54543 | 31498 ft | 376 kts | 171° |
| 2026-05-07 16:42 | 40.93949 | 2.55392 | 31038 ft | 372 kts | 171° |
| 2026-05-07 16:42 | 40.91446 | 2.56244 | 30581 ft | 369 kts | 170° |
| 2026-05-07 16:42 | 40.88968 | 2.57087 | 30131 ft | 366 kts | 170° |
| 2026-05-07 16:42 | 40.86488 | 2.57930 | 29593 ft | 372 kts | 170° |
| 2026-05-07 16:43 | 40.83972 | 2.58784 | 29106 ft | 375 kts | 169° |
| 2026-05-07 16:43 | 40.81426 | 2.59648 | 28659 ft | 379 kts | 169° |
| 2026-05-07 16:43 | 40.78870 | 2.60515 | 28206 ft | 378 kts | 169° |
| 2026-05-07 16:43 | 40.76326 | 2.61377 | 27749 ft | 377 kts | 169° |
| 2026-05-07 16:44 | 40.73788 | 2.62236 | 27294 ft | 375 kts | 169° |
| 2026-05-07 16:44 | 40.71263 | 2.63091 | 26845 ft | 374 kts | 169° |
| 2026-05-07 16:44 | 40.68752 | 2.63939 | 26396 ft | 372 kts | 169° |
| 2026-05-07 16:44 | 40.66245 | 2.64786 | 25960 ft | 371 kts | 169° |
| 2026-05-07 16:45 | 40.63752 | 2.65628 | 25524 ft | 369 kts | 169° |
| 2026-05-07 16:45 | 40.61295 | 2.66457 | 25096 ft | 368 kts | 169° |
| 2026-05-07 16:45 | 40.58818 | 2.67292 | 24657 ft | 366 kts | 169° |
| 2026-05-07 16:45 | 40.56349 | 2.68124 | 24239 ft | 366 kts | 169° |
| 2026-05-07 16:46 | 40.53876 | 2.68957 | 23827 ft | 366 kts | 169° |
| 2026-05-07 16:46 | 40.51413 | 2.69786 | 23393 ft | 365 kts | 168° |
| 2026-05-07 16:46 | 40.49038 | 2.70980 | 22846 ft | 370 kts | 154° |
| 2026-05-07 16:46 | 40.46800 | 2.72619 | 22445 ft | 366 kts | 155° |
| 2026-05-07 16:47 | 40.44580 | 2.74208 | 22087 ft | 361 kts | 155° |
| 2026-05-07 16:47 | 40.42387 | 2.75790 | 21701 ft | 358 kts | 154° |
| 2026-05-07 16:47 | 40.40216 | 2.77359 | 21318 ft | 354 kts | 154° |
| 2026-05-07 16:47 | 40.38067 | 2.78913 | 20944 ft | 351 kts | 154° |
| 2026-05-07 16:48 | 40.35939 | 2.80453 | 20579 ft | 348 kts | 154° |
| 2026-05-07 16:48 | 40.33830 | 2.81977 | 20210 ft | 345 kts | 154° |